createdAt,value
2023-04-27T00:00:53.784Z,69
2023-04-27T00:01:58.624Z,69
2023-04-27T00:03:03.524Z,69
2023-04-27T00:04:08.452Z,69
2023-04-27T00:05:13.051Z,69
2023-04-27T00:06:17.869Z,69
2023-04-27T00:07:22.489Z,69
2023-04-27T00:08:27.258Z,69
2023-04-27T00:09:32.144Z,69
2023-04-27T00:10:36.789Z,69
2023-04-27T00:11:41.544Z,69
2023-04-27T00:12:46.403Z,69
2023-04-27T00:13:51.103Z,69
2023-04-27T00:14:55.834Z,69
2023-04-27T00:16:00.822Z,69
2023-04-27T00:17:05.479Z,69
2023-04-27T00:18:10.148Z,69
2023-04-27T00:19:15.457Z,69
2023-04-27T00:20:19.696Z,69
2023-04-27T00:21:24.644Z,69
2023-04-27T00:22:29.323Z,70
2023-04-27T00:23:34.185Z,70
2023-04-27T00:24:39.012Z,70
2023-04-27T00:25:43.729Z,70
2023-04-27T00:26:48.307Z,70
2023-04-27T00:27:53.320Z,70
2023-04-27T00:28:57.935Z,70
2023-04-27T00:30:02.649Z,70
2023-04-27T00:31:07.617Z,70
2023-04-27T00:32:12.324Z,70
2023-04-27T00:33:17.011Z,70
2023-04-27T00:34:21.753Z,70
2023-04-27T00:35:26.590Z,70
2023-04-27T00:36:31.507Z,70
2023-04-27T00:37:36.078Z,70
2023-04-27T00:38:40.874Z,70
2023-04-27T00:39:45.659Z,70
2023-04-27T00:40:50.479Z,70
2023-04-27T00:41:55.211Z,70
2023-04-27T00:42:59.942Z,70
2023-04-27T00:44:04.846Z,70
2023-04-27T00:45:09.547Z,70
2023-04-27T00:46:14.302Z,70
2023-04-27T00:47:19.043Z,70
2023-04-27T00:48:23.860Z,70
2023-04-27T00:49:28.620Z,70
2023-04-27T00:50:33.420Z,70
2023-04-27T00:51:38.371Z,70
2023-04-27T00:52:42.990Z,70
2023-04-27T00:53:48.094Z,70
2023-04-27T00:54:52.542Z,70
2023-04-27T00:55:57.312Z,70
2023-04-27T00:57:02.121Z,70
2023-04-27T00:58:07.094Z,70
2023-04-27T00:59:12.035Z,70
2023-04-27T01:00:16.640Z,70
2023-04-27T01:01:21.465Z,70
2023-04-27T01:02:26.304Z,70
2023-04-27T01:03:31.076Z,70
2023-04-27T01:04:35.853Z,70
2023-04-27T01:05:40.375Z,70
2023-04-27T01:06:45.150Z,70
2023-04-27T01:07:50.031Z,70
2023-04-27T01:08:54.666Z,70
2023-04-27T01:09:59.582Z,70
2023-04-27T01:11:04.399Z,70
2023-04-27T01:12:09.130Z,70
2023-04-27T01:13:13.825Z,70
2023-04-27T01:14:18.749Z,70
2023-04-27T01:15:23.356Z,70
2023-04-27T01:16:28.220Z,70
2023-04-27T01:17:33.166Z,70
2023-04-27T01:18:37.723Z,70
2023-04-27T01:19:42.451Z,70
2023-04-27T01:20:47.364Z,70
2023-04-27T01:21:51.967Z,70
2023-04-27T01:22:56.732Z,73
2023-04-27T01:24:01.522Z,73
2023-04-27T01:25:06.460Z,73
2023-04-27T01:26:11.067Z,73
2023-04-27T01:27:15.983Z,73
2023-04-27T01:28:20.644Z,73
2023-04-27T01:29:25.437Z,73
2023-04-27T01:30:30.473Z,73
2023-04-27T01:31:35.033Z,73
2023-04-27T01:32:39.882Z,73
2023-04-27T01:33:44.560Z,73
2023-04-27T01:34:50.037Z,73
2023-04-27T01:35:54.091Z,73
2023-04-27T01:36:59.049Z,73
2023-04-27T01:38:03.680Z,73
2023-04-27T01:39:08.438Z,73
2023-04-27T01:40:13.220Z,73
2023-04-27T01:41:18.038Z,73
2023-04-27T01:42:23.983Z,74
2023-04-27T01:43:28.740Z,74
2023-04-27T01:44:33.511Z,74
2023-04-27T01:45:38.309Z,74
2023-04-27T01:46:43.203Z,74
2023-04-27T01:47:47.906Z,74
2023-04-27T01:48:52.707Z,74
2023-04-27T01:49:57.472Z,74
2023-04-27T01:51:07.345Z,74
2023-04-27T01:52:07.864Z,74
2023-04-27T01:53:13.508Z,74
2023-04-27T01:54:18.990Z,74
2023-04-27T01:55:21.424Z,74
2023-04-27T01:57:42.306Z,74
2023-04-27T01:58:52.725Z,74
2023-04-27T01:59:53.252Z,74
2023-04-27T02:02:04.363Z,74
2023-04-27T02:03:05.001Z,74
2023-04-27T02:04:12.126Z,74
2023-04-27T02:05:12.491Z,74
2023-04-27T02:06:21.688Z,74
2023-04-27T02:07:22.212Z,74
2023-04-27T02:08:26.399Z,74
2023-04-27T02:09:32.037Z,74
2023-04-27T02:11:42.974Z,74
2023-04-27T02:12:45.318Z,74
2023-04-27T02:13:55.725Z,74
2023-04-27T02:14:56.357Z,74
2023-04-27T02:16:01.802Z,74
2023-04-27T02:17:04.871Z,74
2023-04-27T02:18:15.418Z,74
2023-04-27T02:19:16.334Z,74
2023-04-27T02:21:39.371Z,74
2023-04-27T02:22:39.928Z,74
2023-04-27T02:23:45.435Z,74
2023-04-27T02:25:56.331Z,74
2023-04-27T02:26:57.052Z,74
2023-04-27T02:29:16.067Z,74
2023-04-27T02:30:21.389Z,74
2023-04-27T02:33:52.992Z,74
2023-04-27T02:35:03.563Z,74
2023-04-27T02:36:09.100Z,74
2023-04-27T02:40:40.973Z,74
2023-04-27T02:43:06.995Z,74
2023-04-27T02:45:28.095Z,74
2023-04-27T02:47:58.767Z,74
2023-04-27T02:50:29.487Z,74
2023-04-27T02:56:36.525Z,74
2023-04-27T02:57:37.169Z,74
2023-04-27T02:59:57.930Z,74
2023-04-27T03:05:00.088Z,75
2023-04-27T03:06:05.571Z,75
2023-04-27T03:07:20.873Z,75
2023-04-27T03:08:31.413Z,75
2023-04-27T03:09:37.051Z,75
2023-04-27T03:11:53.115Z,75
2023-04-27T03:14:13.911Z,75
2023-04-27T03:17:45.164Z,75
2023-04-27T03:21:21.212Z,75
2023-04-27T03:22:21.730Z,75
2023-04-27T03:23:22.260Z,75
2023-04-27T03:24:26.116Z,75
2023-04-27T03:25:31.127Z,75
2023-04-27T03:26:35.692Z,75
2023-04-27T03:27:40.461Z,75
2023-04-27T03:28:45.255Z,75
2023-04-27T03:29:50.092Z,75
2023-04-27T03:30:54.817Z,75
2023-04-27T03:31:59.608Z,75
2023-04-27T03:33:04.409Z,75
2023-04-27T03:34:09.165Z,75
2023-04-27T03:35:13.933Z,75
2023-04-27T03:36:18.736Z,75
2023-04-27T03:37:23.560Z,75
2023-04-27T03:38:28.353Z,75
2023-04-27T03:39:33.127Z,75
2023-04-27T03:40:37.934Z,75
2023-04-27T03:41:42.902Z,75
2023-04-27T03:42:48.310Z,76
2023-04-27T03:43:53.151Z,76
2023-04-27T03:44:57.864Z,76
2023-04-27T03:46:02.724Z,76
2023-04-27T03:47:07.429Z,76
2023-04-27T03:48:12.228Z,76
2023-04-27T03:49:16.995Z,76
2023-04-27T03:50:21.731Z,76
2023-04-27T03:51:26.551Z,76
2023-04-27T03:52:31.432Z,76
2023-04-27T03:53:36.113Z,76
2023-04-27T03:54:41.053Z,76
2023-04-27T03:55:45.771Z,76
2023-04-27T03:56:50.589Z,76
2023-04-27T03:57:55.294Z,76
2023-04-27T03:59:00.018Z,76
2023-04-27T04:00:04.865Z,76
2023-04-27T04:01:09.760Z,76
2023-04-27T04:02:16.250Z,77
2023-04-27T04:03:20.965Z,77
2023-04-27T04:04:25.773Z,77
2023-04-27T04:05:30.327Z,77
2023-04-27T04:06:35.141Z,77
2023-04-27T04:07:39.967Z,77
2023-04-27T04:08:44.718Z,77
2023-04-27T04:09:49.491Z,77
2023-04-27T04:10:54.329Z,77
2023-04-27T04:11:59.177Z,77
2023-04-27T04:13:03.996Z,77
2023-04-27T04:14:08.704Z,77
2023-04-27T04:15:13.372Z,77
2023-04-27T04:16:18.171Z,77
2023-04-27T04:17:23.112Z,77
2023-04-27T04:18:27.688Z,77
2023-04-27T04:19:32.499Z,77
2023-04-27T04:20:37.201Z,77
2023-04-27T04:21:42.043Z,77
2023-04-27T04:22:48.349Z,75
2023-04-27T04:23:53.212Z,75
2023-04-27T04:24:58.033Z,75
2023-04-27T04:26:02.671Z,75
2023-04-27T04:27:07.480Z,75
2023-04-27T04:28:12.215Z,75
2023-04-27T04:29:17.066Z,75
2023-04-27T04:30:22.038Z,75
2023-04-27T04:31:26.915Z,75
2023-04-27T04:32:31.522Z,75
2023-04-27T04:33:36.156Z,75
2023-04-27T04:34:41.009Z,75
2023-04-27T04:35:45.912Z,75
2023-04-27T04:36:50.509Z,75
2023-04-27T04:37:55.370Z,75
2023-04-27T04:39:00.098Z,75
2023-04-27T04:40:04.997Z,75
2023-04-27T04:41:09.608Z,75
2023-04-27T04:42:15.966Z,77
2023-04-27T04:43:20.795Z,77
2023-04-27T04:44:25.621Z,77
2023-04-27T04:45:30.545Z,77
2023-04-27T04:46:35.158Z,77
2023-04-27T04:47:40.010Z,77
2023-04-27T04:48:44.632Z,77
2023-04-27T04:49:49.429Z,77
2023-04-27T04:50:54.265Z,77
2023-04-27T04:51:59.044Z,77
2023-04-27T04:53:03.850Z,77
2023-04-27T04:54:08.608Z,77
2023-04-27T04:55:13.507Z,77
2023-04-27T04:56:18.192Z,77
2023-04-27T04:57:23.159Z,77
2023-04-27T04:58:27.780Z,77
2023-04-27T04:59:32.568Z,77
2023-04-27T05:00:37.358Z,77
2023-04-27T05:01:42.330Z,77
2023-04-27T05:02:48.335Z,77
2023-04-27T05:03:53.163Z,77
2023-04-27T05:04:57.993Z,77
2023-04-27T05:06:02.533Z,77
2023-04-27T05:07:07.535Z,77
2023-04-27T05:08:12.345Z,77
2023-04-27T05:09:17.062Z,77
2023-04-27T05:10:21.675Z,77
2023-04-27T05:11:26.515Z,77
2023-04-27T05:12:31.221Z,77
2023-04-27T05:13:36.242Z,77
2023-04-27T05:14:40.807Z,77
2023-04-27T05:15:45.630Z,77
2023-04-27T05:16:50.386Z,77
2023-04-27T05:17:55.336Z,77
2023-04-27T05:18:59.969Z,77
2023-04-27T05:20:04.756Z,77
2023-04-27T05:21:09.480Z,77
2023-04-27T05:22:14.238Z,77
2023-04-27T05:23:19.151Z,77
2023-04-27T05:24:23.819Z,77
2023-04-27T05:25:28.749Z,77
2023-04-27T05:26:33.348Z,77
2023-04-27T05:27:38.298Z,77
2023-04-27T05:29:12.060Z,77
2023-04-27T05:30:12.436Z,77
2023-04-27T05:31:12.984Z,77
2023-04-27T05:32:16.720Z,77
2023-04-27T05:33:21.661Z,77
2023-04-27T05:34:26.459Z,77
2023-04-27T05:35:31.173Z,77
2023-04-27T05:36:35.873Z,77
2023-04-27T05:37:40.627Z,77
2023-04-27T05:38:45.426Z,77
2023-04-27T05:39:50.170Z,77
2023-04-27T05:40:55.590Z,77
2023-04-27T05:41:59.792Z,77
2023-04-27T05:43:04.612Z,77
2023-04-27T05:44:09.233Z,77
2023-04-27T05:45:14.270Z,77
2023-04-27T05:46:19.030Z,77
2023-04-27T05:47:23.670Z,77
2023-04-27T05:48:28.384Z,75
2023-04-27T05:49:33.226Z,75
2023-04-27T05:50:38.043Z,75
2023-04-27T05:51:42.873Z,75
2023-04-27T05:52:47.475Z,75
2023-04-27T05:53:52.512Z,75
2023-04-27T05:54:57.303Z,75
2023-04-27T05:56:01.921Z,75
2023-04-27T05:57:06.970Z,75
2023-04-27T05:58:11.780Z,75
2023-04-27T05:59:16.598Z,75
2023-04-27T06:00:21.196Z,75
2023-04-27T06:01:26.029Z,75
2023-04-27T06:02:30.827Z,75
2023-04-27T06:03:35.674Z,75
2023-04-27T06:04:40.405Z,75
2023-04-27T06:05:45.069Z,75
2023-04-27T06:06:49.841Z,75
2023-04-27T06:07:54.575Z,75
2023-04-27T06:08:59.343Z,74
2023-04-27T06:10:04.110Z,74
2023-04-27T06:11:08.861Z,74
2023-04-27T06:12:13.643Z,74
2023-04-27T06:13:18.457Z,74
2023-04-27T06:14:23.214Z,74
2023-04-27T06:15:28.002Z,74
2023-04-27T06:16:32.776Z,74
2023-04-27T06:17:37.634Z,74
2023-04-27T06:18:42.542Z,74
2023-04-27T06:19:47.112Z,74
2023-04-27T06:20:51.968Z,74
2023-04-27T06:21:56.888Z,74
2023-04-27T06:23:01.502Z,74
2023-04-27T06:24:06.346Z,74
2023-04-27T06:25:11.255Z,74
2023-04-27T06:26:15.957Z,74
2023-04-27T06:27:20.589Z,74
2023-04-27T06:28:25.355Z,73
2023-04-27T06:29:30.172Z,73
2023-04-27T06:30:35.474Z,73
2023-04-27T06:31:39.888Z,73
2023-04-27T06:32:44.553Z,73
2023-04-27T06:33:49.393Z,73
2023-04-27T06:34:54.198Z,73
2023-04-27T06:35:58.799Z,73
2023-04-27T06:37:03.752Z,73
2023-04-27T06:38:08.389Z,73
2023-04-27T06:39:13.333Z,73
2023-04-27T06:40:17.956Z,73
2023-04-27T06:41:22.728Z,73
2023-04-27T06:42:27.741Z,73
2023-04-27T06:43:32.339Z,73
2023-04-27T06:44:37.083Z,73
2023-04-27T06:45:41.852Z,73
2023-04-27T06:46:46.703Z,73
2023-04-27T06:47:51.536Z,73
2023-04-27T06:48:56.341Z,69
2023-04-27T06:50:00.936Z,69
2023-04-27T06:51:05.894Z,69
2023-04-27T06:52:10.507Z,69
2023-04-27T06:53:15.308Z,69
2023-04-27T06:54:20.060Z,69
2023-04-27T06:55:24.799Z,69
2023-04-27T06:56:29.779Z,69
2023-04-27T06:57:34.303Z,69
2023-04-27T06:58:39.100Z,69
2023-04-27T06:59:43.847Z,69
2023-04-27T07:00:48.614Z,69
2023-04-27T07:01:53.569Z,69
2023-04-27T07:02:58.163Z,69
2023-04-27T07:04:03.062Z,69
2023-04-27T07:05:07.713Z,69
2023-04-27T07:06:12.646Z,69
2023-04-27T07:07:17.266Z,69
2023-04-27T07:08:22.045Z,65
2023-04-27T07:09:27.669Z,65
2023-04-27T07:10:31.714Z,65
2023-04-27T07:11:36.338Z,65
2023-04-27T07:12:41.134Z,65
2023-04-27T07:13:45.875Z,65
2023-04-27T07:14:50.705Z,65
2023-04-27T07:15:55.409Z,65
2023-04-27T07:17:00.317Z,65
2023-04-27T07:18:05.137Z,65
2023-04-27T07:19:09.710Z,65
2023-04-27T07:20:14.690Z,65
2023-04-27T07:21:19.284Z,65
2023-04-27T07:22:24.207Z,65
2023-04-27T07:23:28.851Z,65
2023-04-27T07:24:33.784Z,65
2023-04-27T07:25:38.586Z,65
2023-04-27T07:26:43.295Z,65
2023-04-27T07:27:48.113Z,65
2023-04-27T07:28:52.723Z,64
2023-04-27T07:29:57.512Z,64
2023-04-27T07:31:02.252Z,64
2023-04-27T07:32:07.286Z,64
2023-04-27T07:33:12.006Z,64
2023-04-27T07:34:16.716Z,64
2023-04-27T07:35:21.302Z,64
2023-04-27T07:36:26.035Z,64
2023-04-27T07:37:30.838Z,64
2023-04-27T07:38:35.611Z,64
2023-04-27T07:39:40.452Z,64
2023-04-27T07:40:45.342Z,64
2023-04-27T07:41:50.098Z,64
2023-04-27T07:42:54.655Z,64
2023-04-27T07:43:59.590Z,64
2023-04-27T07:45:04.400Z,64
2023-04-27T07:46:09.238Z,64
2023-04-27T07:47:13.943Z,64
2023-04-27T07:48:20.156Z,60
2023-04-27T07:49:24.937Z,60
2023-04-27T07:50:29.734Z,60
2023-04-27T07:51:34.581Z,60
2023-04-27T07:52:39.094Z,60
2023-04-27T07:53:44.962Z,60
2023-04-27T07:54:48.647Z,60
2023-04-27T07:55:53.519Z,60
2023-04-27T07:56:58.348Z,60
2023-04-27T07:58:02.953Z,60
2023-04-27T07:59:07.726Z,60
2023-04-27T08:00:12.538Z,60
2023-04-27T08:01:18.999Z,60
2023-04-27T08:02:22.330Z,60
2023-04-27T08:03:26.976Z,60
2023-04-27T08:04:31.928Z,60
2023-04-27T08:05:37.017Z,60
2023-04-27T08:06:41.411Z,60
2023-04-27T08:07:46.071Z,60
2023-04-27T08:08:52.507Z,57
2023-04-27T08:09:57.244Z,57
2023-04-27T08:11:02.013Z,57
2023-04-27T08:12:06.782Z,57
2023-04-27T08:13:11.518Z,57
2023-04-27T08:14:16.485Z,57
2023-04-27T08:15:21.188Z,57
2023-04-27T08:16:25.955Z,57
2023-04-27T08:17:30.767Z,57
2023-04-27T08:18:35.614Z,57
2023-04-27T08:19:40.314Z,57
2023-04-27T08:20:45.098Z,57
2023-04-27T08:21:50.025Z,57
2023-04-27T08:22:54.659Z,57
2023-04-27T08:23:59.472Z,57
2023-04-27T08:25:04.276Z,57
2023-04-27T08:26:09.017Z,57
2023-04-27T08:27:13.762Z,57
2023-04-27T08:28:20.159Z,56
2023-04-27T08:29:28.213Z,56
2023-04-27T08:30:29.674Z,56
2023-04-27T08:31:34.666Z,56
2023-04-27T08:32:39.250Z,56
2023-04-27T08:33:44.196Z,56
2023-04-27T08:34:48.831Z,56
2023-04-27T08:36:45.607Z,54
2023-04-27T08:37:46.328Z,54
2023-04-27T08:38:46.897Z,54
2023-04-27T08:40:12.028Z,54
2023-04-27T08:41:21.145Z,54
2023-04-27T08:42:13.058Z,54
2023-04-27T08:43:41.079Z,53
2023-04-27T08:44:41.601Z,53
2023-04-27T08:46:29.407Z,53
2023-04-27T08:49:03.818Z,53
2023-04-27T08:50:04.559Z,53
2023-04-27T08:51:05.248Z,53
2023-04-27T08:52:08.678Z,53
2023-04-27T08:53:13.477Z,53
2023-04-27T08:54:18.215Z,53
2023-04-27T08:55:23.068Z,53
2023-04-27T08:56:50.704Z,53
2023-04-27T08:59:04.639Z,53
2023-04-27T09:01:03.591Z,53
2023-04-27T09:02:04.183Z,53
2023-04-27T09:03:06.240Z,53
2023-04-27T09:04:39.733Z,53
2023-04-27T09:05:46.566Z,53
2023-04-27T09:06:40.728Z,53
2023-04-27T09:07:44.382Z,53
2023-04-27T09:08:49.151Z,53
2023-04-27T09:09:53.937Z,53
2023-04-27T09:10:58.952Z,53
2023-04-27T09:12:03.677Z,53
2023-04-27T09:13:08.324Z,53
2023-04-27T09:14:13.087Z,53
2023-04-27T09:15:17.864Z,53
2023-04-27T09:16:22.668Z,53
2023-04-27T09:17:27.471Z,53
2023-04-27T09:18:32.393Z,53
2023-04-27T09:19:36.984Z,53
2023-04-27T09:20:41.757Z,53
2023-04-27T09:21:47.717Z,53
2023-04-27T09:22:51.344Z,53
2023-04-27T09:23:56.174Z,50
2023-04-27T09:25:00.932Z,50
2023-04-27T09:26:05.845Z,50
2023-04-27T09:27:10.451Z,50
2023-04-27T09:28:15.354Z,50
2023-04-27T09:29:19.955Z,50
2023-04-27T09:30:24.905Z,50
2023-04-27T09:31:29.561Z,50
2023-04-27T09:32:34.333Z,50
2023-04-27T09:33:39.096Z,50
2023-04-27T09:34:43.854Z,50
2023-04-27T09:35:48.650Z,50
2023-04-27T09:36:53.430Z,50
2023-04-27T09:37:58.401Z,50
2023-04-27T09:39:03.010Z,50
2023-04-27T09:40:07.955Z,50
2023-04-27T09:41:12.901Z,50
2023-04-27T09:42:17.485Z,50
2023-04-27T09:43:22.296Z,50
2023-04-27T09:44:27.071Z,47
2023-04-27T09:45:31.686Z,47
2023-04-27T09:46:36.556Z,47
2023-04-27T09:47:41.296Z,47
2023-04-27T09:48:46.092Z,47
2023-04-27T09:49:50.936Z,47
2023-04-27T09:50:55.481Z,47
2023-04-27T09:52:00.290Z,47
2023-04-27T09:53:05.076Z,47
2023-04-27T09:54:09.828Z,47
2023-04-27T09:55:14.697Z,47
2023-04-27T09:56:19.472Z,47
2023-04-27T09:57:24.261Z,47
2023-04-27T09:58:29.004Z,47
2023-04-27T09:59:33.827Z,47
2023-04-27T10:00:38.560Z,47
2023-04-27T10:01:43.487Z,47
2023-04-27T10:02:52.942Z,47
2023-04-27T10:03:53.034Z,48
2023-04-27T10:04:57.729Z,48
2023-04-27T10:06:02.686Z,48
2023-04-27T10:07:07.325Z,48
2023-04-27T10:08:12.120Z,48
2023-04-27T10:09:16.887Z,48
2023-04-27T10:10:21.893Z,48
2023-04-27T10:11:26.524Z,48
2023-04-27T10:12:31.289Z,48
2023-04-27T10:13:36.062Z,48
2023-04-27T10:14:40.900Z,48
2023-04-27T10:15:45.757Z,48
2023-04-27T10:16:50.429Z,48
2023-04-27T10:17:55.286Z,48
2023-04-27T10:18:59.951Z,48
2023-04-27T10:20:04.742Z,48
2023-04-27T10:21:09.497Z,48
2023-04-27T10:22:14.464Z,48
2023-04-27T10:23:19.092Z,48
2023-04-27T10:24:23.928Z,49
2023-04-27T10:25:28.707Z,49
2023-04-27T10:26:34.352Z,49
2023-04-27T10:27:38.294Z,49
2023-04-27T10:30:36.807Z,49
2023-04-27T10:31:37.322Z,49
2023-04-27T10:32:37.884Z,49
2023-04-27T10:33:41.632Z,49
2023-04-27T10:35:38.127Z,47
2023-04-27T10:36:38.745Z,47
2023-04-27T10:37:39.264Z,47
2023-04-27T10:38:43.027Z,47
2023-04-27T10:39:49.484Z,47
2023-04-27T10:40:52.606Z,47
2023-04-27T10:41:57.525Z,47
2023-04-27T10:43:02.141Z,47
2023-04-27T10:44:06.925Z,47
2023-04-27T10:45:11.733Z,47
2023-04-27T10:46:16.549Z,47
2023-04-27T10:47:21.274Z,47
2023-04-27T10:48:26.262Z,47
2023-04-27T10:49:30.907Z,47
2023-04-27T10:50:35.771Z,47
2023-04-27T10:51:40.428Z,47
2023-04-27T10:52:45.416Z,47
2023-04-27T10:53:50.062Z,47
2023-04-27T10:54:54.939Z,47
2023-04-27T10:55:59.749Z,47
2023-04-27T10:57:04.500Z,47
2023-04-27T10:58:09.195Z,47
2023-04-27T10:59:14.252Z,47
2023-04-27T11:00:18.770Z,47
2023-04-27T11:01:23.570Z,47
2023-04-27T11:02:28.388Z,47
2023-04-27T11:03:33.156Z,47
2023-04-27T11:04:37.823Z,47
2023-04-27T11:05:42.767Z,47
2023-04-27T11:06:47.461Z,47
2023-04-27T11:07:52.257Z,47
2023-04-27T11:08:56.930Z,47
2023-04-27T11:10:01.677Z,47
2023-04-27T11:11:06.546Z,47
2023-04-27T11:12:11.289Z,47
2023-04-27T11:13:16.031Z,47
2023-04-27T11:14:20.790Z,47
2023-04-27T11:15:25.523Z,45
2023-04-27T11:16:32.611Z,45
2023-04-27T11:17:35.107Z,45
2023-04-27T11:18:40.054Z,45
2023-04-27T11:19:44.769Z,45
2023-04-27T11:20:49.452Z,45
2023-04-27T11:21:54.191Z,45
2023-04-27T11:22:58.977Z,45
2023-04-27T11:24:03.744Z,45
2023-04-27T11:25:08.549Z,45
2023-04-27T11:26:13.327Z,45
2023-04-27T11:27:18.128Z,45
2023-04-27T11:28:22.846Z,45
2023-04-27T11:29:27.740Z,45
2023-04-27T11:30:32.551Z,45
2023-04-27T11:31:37.163Z,45
2023-04-27T11:32:42.059Z,45
2023-04-27T11:33:46.706Z,45
2023-04-27T11:35:56.320Z,46
2023-04-27T11:38:05.998Z,46
2023-04-27T11:39:10.650Z,46
2023-04-27T11:40:15.407Z,46
2023-04-27T11:41:20.160Z,46
2023-04-27T11:42:24.972Z,46
2023-04-27T11:44:34.656Z,46
2023-04-27T11:46:23.271Z,0
2023-04-27T11:47:26.312Z,0
2023-04-27T11:50:16.684Z,46
2023-04-27T11:51:17.199Z,46
2023-04-27T11:52:17.747Z,46
2023-04-27T11:53:21.535Z,46
2023-04-27T11:54:51.132Z,46
2023-04-27T11:55:51.666Z,46
2023-04-27T11:56:52.177Z,46
2023-04-27T11:59:25.849Z,46
2023-04-27T12:01:48.334Z,46
2023-04-27T12:02:49.023Z,46
2023-04-27T12:05:02.057Z,46
2023-04-27T12:07:02.895Z,46
2023-04-27T12:08:06.703Z,46
2023-04-27T12:19:02.147Z,46
2023-04-27T12:20:02.661Z,46
2023-04-27T12:25:46.319Z,46
2023-04-27T12:26:46.984Z,46
2023-04-27T12:27:47.690Z,46
2023-04-27T12:28:51.171Z,46
2023-04-27T12:29:55.955Z,46
2023-04-27T12:31:00.744Z,46
2023-04-27T12:32:05.461Z,46
2023-04-27T12:33:10.266Z,46
2023-04-27T12:34:15.273Z,46
2023-04-27T12:35:19.966Z,46
2023-04-27T12:36:24.598Z,46
2023-04-27T12:37:29.387Z,46
2023-04-27T12:38:34.140Z,46
2023-04-27T12:39:38.937Z,46
2023-04-27T12:40:43.682Z,46
2023-04-27T12:41:48.447Z,46
2023-04-27T12:42:53.245Z,46
2023-04-27T12:45:31.993Z,44
2023-04-27T12:46:46.498Z,44
2023-04-27T12:48:01.515Z,44
2023-04-27T12:50:57.002Z,44
2023-04-27T12:51:57.508Z,44
2023-04-27T12:52:58.055Z,44
2023-04-27T12:54:02.081Z,44
2023-04-27T12:55:06.677Z,44
2023-04-27T12:56:11.524Z,44
2023-04-27T12:57:16.442Z,44
2023-04-27T12:58:21.027Z,44
2023-04-27T12:59:25.882Z,44
2023-04-27T13:01:11.209Z,44
2023-04-27T13:02:11.687Z,44
2023-04-27T13:03:12.453Z,44
2023-04-27T13:04:16.310Z,44
2023-04-27T13:05:20.797Z,44
2023-04-27T13:06:25.591Z,44
2023-04-27T13:07:30.370Z,44
2023-04-27T13:08:35.097Z,44
2023-04-27T13:09:39.893Z,44
2023-04-27T13:10:44.678Z,44
2023-04-27T13:11:49.443Z,44
2023-04-27T13:12:54.433Z,44
2023-04-27T13:13:59.147Z,44
2023-04-27T13:15:03.965Z,44
2023-04-27T13:16:08.606Z,44
2023-04-27T13:17:13.503Z,44
2023-04-27T13:18:18.166Z,44
2023-04-27T13:19:22.856Z,44
2023-04-27T13:20:27.642Z,44
2023-04-27T13:21:32.608Z,44
2023-04-27T13:22:37.305Z,44
2023-04-27T13:23:41.974Z,44
2023-04-27T13:24:46.939Z,44
2023-04-27T13:25:51.609Z,44
2023-04-27T13:26:56.282Z,44
2023-04-27T13:28:01.178Z,44
2023-04-27T13:29:06.006Z,44
2023-04-27T13:30:10.639Z,44
2023-04-27T13:31:15.391Z,44
2023-04-27T13:32:20.182Z,44
2023-04-27T13:33:24.997Z,44
2023-04-27T13:34:29.702Z,44
2023-04-27T13:35:34.491Z,44
2023-04-27T13:36:39.323Z,44
2023-04-27T13:37:44.263Z,44
2023-04-27T13:38:48.800Z,44
2023-04-27T13:39:53.605Z,44
2023-04-27T13:40:58.447Z,42
2023-04-27T13:42:03.192Z,42
2023-04-27T13:43:07.998Z,42
2023-04-27T13:44:12.834Z,42
2023-04-27T13:45:17.531Z,42
2023-04-27T13:46:22.338Z,42
2023-04-27T13:47:27.139Z,42
2023-04-27T13:48:31.856Z,42
2023-04-27T13:49:36.664Z,42
2023-04-27T13:50:41.445Z,42
2023-04-27T13:51:46.427Z,42
2023-04-27T13:52:51.013Z,42
2023-04-27T13:53:55.857Z,42
2023-04-27T13:55:00.568Z,42
2023-04-27T13:56:05.330Z,42
2023-04-27T13:57:10.102Z,42
2023-04-27T13:58:14.878Z,42
2023-04-27T13:59:19.637Z,42
2023-04-27T14:00:24.385Z,41
2023-04-27T14:01:29.196Z,41
2023-04-27T14:02:34.024Z,41
2023-04-27T14:03:39.829Z,41
2023-04-27T14:04:43.609Z,41
2023-04-27T14:05:48.285Z,41
2023-04-27T14:06:53.277Z,41
2023-04-27T14:07:57.856Z,41
2023-04-27T14:09:02.640Z,41
2023-04-27T14:10:07.446Z,41
2023-04-27T14:11:12.161Z,41
2023-04-27T14:12:17.161Z,41
2023-04-27T14:13:21.762Z,41
2023-04-27T14:14:26.499Z,41
2023-04-27T14:15:31.291Z,41
2023-04-27T14:16:36.258Z,41
2023-04-27T14:17:41.000Z,41
2023-04-27T14:18:45.614Z,41
2023-04-27T14:19:50.376Z,41
2023-04-27T14:20:55.129Z,41
2023-04-27T14:22:00.167Z,41
2023-04-27T14:23:04.693Z,41
2023-04-27T14:24:09.575Z,41
2023-04-27T14:25:14.470Z,41
2023-04-27T14:26:19.196Z,41
2023-04-27T14:27:24.037Z,41
2023-04-27T14:28:28.646Z,41
2023-04-27T14:29:33.420Z,41
2023-04-27T14:30:38.200Z,41
2023-04-27T14:31:43.048Z,41
2023-04-27T14:32:47.994Z,41
2023-04-27T14:33:52.569Z,41
2023-04-27T14:34:57.554Z,41
2023-04-27T14:36:02.271Z,41
2023-04-27T14:37:06.939Z,41
2023-04-27T14:38:11.662Z,41
2023-04-27T14:39:16.695Z,41
2023-04-27T14:40:21.342Z,39
2023-04-27T14:41:26.026Z,39
2023-04-27T14:42:30.820Z,39
2023-04-27T14:43:35.613Z,39
2023-04-27T14:44:40.407Z,39
2023-04-27T14:45:52.579Z,39
2023-04-27T14:46:50.092Z,39
2023-04-27T14:47:54.699Z,39
2023-04-27T14:48:59.593Z,39
2023-04-27T14:50:04.192Z,39
2023-04-27T14:51:09.014Z,39
2023-04-27T14:52:13.955Z,39
2023-04-27T14:53:18.670Z,39
2023-04-27T14:54:23.564Z,39
2023-04-27T14:55:28.147Z,39
2023-04-27T14:56:33.017Z,39
2023-04-27T14:57:37.847Z,39
2023-04-27T14:58:42.658Z,39
2023-04-27T14:59:47.373Z,39
2023-04-27T15:00:53.564Z,38
2023-04-27T15:01:58.420Z,38
2023-04-27T15:03:03.308Z,38
2023-04-27T15:04:08.125Z,38
2023-04-27T15:05:12.684Z,38
2023-04-27T15:06:17.445Z,38
2023-04-27T15:07:22.271Z,38
2023-04-27T15:08:26.967Z,38
2023-04-27T15:09:31.874Z,38
2023-04-27T15:10:36.592Z,38
2023-04-27T15:11:41.264Z,38
2023-04-27T15:12:46.264Z,38
2023-04-27T15:13:50.857Z,38
2023-04-27T15:14:55.853Z,38
2023-04-27T15:16:00.615Z,38
2023-04-27T15:17:05.398Z,38
2023-04-27T15:18:10.013Z,38
2023-04-27T15:19:15.035Z,38
2023-04-27T15:20:19.564Z,38
2023-04-27T15:21:24.241Z,38
2023-04-27T15:22:29.116Z,38
2023-04-27T15:23:33.808Z,38
2023-04-27T15:24:38.625Z,38
2023-04-27T15:25:43.321Z,38
2023-04-27T15:26:48.173Z,38
2023-04-27T15:27:52.878Z,38
2023-04-27T15:28:57.662Z,38
2023-04-27T15:30:02.458Z,38
2023-04-27T15:31:07.386Z,38
2023-04-27T15:32:12.162Z,38
2023-04-27T15:33:16.943Z,38
2023-04-27T15:34:21.816Z,38
2023-04-27T15:35:26.410Z,38
2023-04-27T15:36:31.187Z,38
2023-04-27T15:37:35.988Z,38
2023-04-27T15:38:40.687Z,38
2023-04-27T15:39:45.475Z,38
2023-04-27T15:40:51.664Z,40
2023-04-27T15:41:56.578Z,40
2023-04-27T15:43:01.233Z,40
2023-04-27T15:44:06.193Z,40
2023-04-27T15:45:10.807Z,40
2023-04-27T15:46:15.548Z,40
2023-04-27T15:47:20.266Z,40
2023-04-27T15:48:25.181Z,40
2023-04-27T15:49:29.909Z,40
2023-04-27T15:50:34.697Z,40
2023-04-27T15:51:39.312Z,40
2023-04-27T15:52:44.268Z,40
2023-04-27T15:53:49.064Z,40
2023-04-27T15:54:53.675Z,40
2023-04-27T15:55:58.489Z,40
2023-04-27T15:57:03.221Z,40
2023-04-27T15:58:08.128Z,40
2023-04-27T15:59:13.080Z,40
2023-04-27T16:00:17.661Z,40
2023-04-27T16:01:22.363Z,40
2023-04-27T16:02:27.290Z,40
2023-04-27T16:03:31.958Z,40
2023-04-27T16:04:36.650Z,40
2023-04-27T16:05:41.435Z,40
2023-04-27T16:06:46.190Z,40
2023-04-27T16:07:51.036Z,40
2023-04-27T16:08:55.760Z,40
2023-04-27T16:10:00.568Z,40
2023-04-27T16:11:05.311Z,40
2023-04-27T16:12:10.179Z,40
2023-04-27T16:13:14.850Z,40
2023-04-27T16:14:19.727Z,40
2023-04-27T16:15:24.436Z,40
2023-04-27T16:16:29.361Z,40
2023-04-27T16:17:33.999Z,40
2023-04-27T16:18:38.751Z,40
2023-04-27T16:19:43.605Z,40
2023-04-27T16:20:48.419Z,41
2023-04-27T16:21:53.355Z,41
2023-04-27T16:22:57.891Z,41
2023-04-27T16:24:02.777Z,41
2023-04-27T16:25:07.345Z,41
2023-04-27T16:26:12.341Z,41
2023-04-27T16:27:17.118Z,41
2023-04-27T16:28:21.744Z,41
2023-04-27T16:29:26.463Z,41
2023-04-27T16:30:31.398Z,41
2023-04-27T16:31:35.983Z,41
2023-04-27T16:32:40.957Z,41
2023-04-27T16:33:45.493Z,41
2023-04-27T16:34:50.462Z,41
2023-04-27T16:35:55.225Z,41
2023-04-27T16:37:00.034Z,41
2023-04-27T16:38:04.680Z,41